Time;durP1;ratioP1;P1;durP2;ratioP2;P2;SDS_P1;SDS_P2;PMS_P1;PMS_P2;Temp;Humidity;BMP_temperature;BMP_pressure;BME280_temperature;BME280_humidity;BME280_pressure;Samples;Min_cycle;Max_cycle;Signal;HPM_P1;HPM_P2
2021/09/06 00:02:10;;;;;;;25.23;13.88;;;;;;;25.95;44.14;101373.91;4424082;32;20069;-68
2021/09/06 00:04:37;;;;;;;28.87;15.13;;;;;;;25.97;44.15;101379.16;4427374;32;20077;-70
2021/09/06 00:07:03;;;;;;;29.25;15.45;;;;;;;26.17;43.97;101370.19;4425373;32;20081;-69
2021/09/06 00:09:30;;;;;;;26.67;14.18;;;;;;;25.97;44.28;101376.25;4425519;32;20052;-68
2021/09/06 00:11:56;;;;;;;24.15;14.75;;;;;;;26.07;44.37;101374.66;4425624;32;20076;-68
2021/09/06 00:14:22;;;;;;;28.00;15.35;;;;;;;25.86;44.66;101371.31;4425322;32;20511;-68
2021/09/06 00:16:48;;;;;;;31.30;15.88;;;;;;;25.71;44.79;101373.72;4423998;32;20696;-68
2021/09/06 00:19:14;;;;;;;28.08;15.85;;;;;;;25.55;45.34;101380.34;4427623;32;20093;-68
2021/09/06 00:21:41;;;;;;;27.02;15.82;;;;;;;25.68;45.20;101379.78;4423116;32;20046;-68
2021/09/06 00:24:07;;;;;;;27.10;15.63;;;;;;;25.53;45.51;101367.78;4424754;32;20379;-68
2021/09/06 00:26:33;;;;;;;25.80;15.32;;;;;;;25.62;45.33;101379.81;4422463;32;20854;-68
2021/09/06 00:29:00;;;;;;;30.35;15.30;;;;;;;25.49;45.57;101367.25;4423584;32;20089;-68
2021/09/06 00:31:25;;;;;;;30.35;14.93;;;;;;;25.56;45.10;101367.50;4424399;32;20075;-69
2021/09/06 00:33:51;;;;;;;30.58;14.98;;;;;;;25.52;45.45;101366.97;4424500;32;20332;-69
2021/09/06 00:36:18;;;;;;;29.12;15.45;;;;;;;25.57;45.25;101368.28;4426827;32;20385;-69
2021/09/06 00:38:43;;;;;;;25.92;15.70;;;;;;;25.46;45.32;101365.44;4421331;32;20110;-69
2021/09/06 00:41:09;;;;;;;27.98;15.52;;;;;;;25.54;45.33;101372.22;4424202;32;20103;-69
2021/09/06 00:43:36;;;;;;;27.95;14.75;;;;;;;25.58;45.30;101372.75;4423612;32;20050;-69
2021/09/06 00:46:03;;;;;;;27.08;13.77;;;;;;;25.58;44.98;101370.62;4421140;32;20071;-69
2021/09/06 00:48:30;;;;;;;24.87;13.95;;;;;;;25.70;44.84;101374.25;4423031;32;20081;-69
2021/09/06 00:50:57;;;;;;;29.20;15.05;;;;;;;25.56;45.12;101369.59;4427695;32;20054;-69
2021/09/06 00:53:23;;;;;;;26.48;14.90;;;;;;;25.64;45.18;101362.00;4425665;32;20064;-69
2021/09/06 00:55:50;;;;;;;31.17;15.68;;;;;;;25.61;45.08;101368.81;4424419;32;20111;-69
2021/09/06 00:58:17;;;;;;;23.73;14.65;;;;;;;25.58;45.30;101372.75;4428635;32;20025;-69
2021/09/06 01:00:43;;;;;;;24.95;14.93;;;;;;;25.58;45.16;101366.97;4427845;32;20096;-69
2021/09/06 01:03:09;;;;;;;28.75;14.00;;;;;;;25.49;45.45;101368.03;4427122;32;20402;-69
2021/09/06 01:05:35;;;;;;;29.25;14.02;;;;;;;25.49;45.45;101367.25;4430131;32;20068;-69
2021/09/06 01:08:01;;;;;;;28.98;14.50;;;;;;;25.59;45.26;101369.34;4427779;32;20073;-69
2021/09/06 01:10:29;;;;;;;33.47;15.52;;;;;;;25.48;45.55;101359.91;4425557;32;20026;-69
2021/09/06 01:12:55;;;;;;;26.27;13.62;;;;;;;25.50;45.65;101365.94;4427325;32;20094;-69
2021/09/06 01:15:21;;;;;;;26.27;15.15;;;;;;;25.37;45.54;101357.06;4429266;32;20041;-69
2021/09/06 01:17:47;;;;;;;32.67;16.42;;;;;;;25.48;45.33;101360.72;4428583;32;20038;-69
2021/09/06 01:20:13;;;;;;;27.10;14.32;;;;;;;25.50;45.29;101358.09;4427770;32;20418;-69
2021/09/06 01:22:39;;;;;;;25.80;13.93;;;;;;;25.62;45.01;101353.06;4425694;32;20041;-69
2021/09/06 01:25:06;;;;;;;24.25;14.57;;;;;;;25.43;45.35;101363.59;4429217;32;20041;-69
2021/09/06 01:27:32;;;;;;;24.42;14.25;;;;;;;25.56;45.08;101364.63;4426593;32;20502;-69
2021/09/06 01:29:59;;;;;;;28.52;13.70;;;;;;;25.57;45.02;101363.31;4426776;32;20143;-69
2021/09/06 01:32:25;;;;;;;25.48;12.82;;;;;;;25.70;44.93;101362.72;4424598;32;20081;-69
2021/09/06 01:34:51;;;;;;;26.90;13.30;;;;;;;25.56;44.88;101373.28;4428404;32;20049;-69
2021/09/06 01:37:17;;;;;;;24.52;13.80;;;;;;;25.60;44.96;101364.34;4426137;32;20033;-69
2021/09/06 01:39:43;;;;;;;26.23;13.70;;;;;;;25.63;44.96;101369.84;4429112;32;20041;-69
2021/09/06 01:42:08;;;;;;;23.00;13.43;;;;;;;25.66;44.80;101368.78;4426158;32;20041;-69
2021/09/06 01:44:34;;;;;;;23.60;12.93;;;;;;;25.58;44.62;101364.09;4427522;32;20030;-69
2021/09/06 01:47:00;;;;;;;27.08;14.20;;;;;;;25.67;44.76;101355.16;4427124;32;20084;-69
2021/09/06 01:49:26;;;;;;;23.02;12.57;;;;;;;25.61;44.96;101354.41;4428351;32;20042;-69
2021/09/06 01:51:51;;;;;;;25.48;13.05;;;;;;;25.59;44.71;101362.78;4424854;32;20448;-69
2021/09/06 01:54:17;;;;;;;29.02;14.23;;;;;;;25.76;44.55;101355.63;4424361;32;20116;-69
2021/09/06 01:56:43;;;;;;;23.17;13.10;;;;;;;25.73;44.62;101353.81;4426302;32;20038;-69
2021/09/06 01:59:09;;;;;;;21.60;12.93;;;;;;;25.90;44.43;101356.63;4428157;32;20089;-69
2021/09/06 02:01:35;;;;;;;20.98;13.52;;;;;;;25.83;44.33;101360.09;4430181;32;20037;-68
2021/09/06 02:04:01;;;;;;;24.40;13.62;;;;;;;25.96;44.06;101363.97;4424620;32;20029;-68
2021/09/06 02:06:27;;;;;;;26.65;14.05;;;;;;;26.01;43.86;101351.63;4428484;32;20496;-68
2021/09/06 02:08:53;;;;;;;30.55;15.38;;;;;;;26.11;43.66;101355.75;4425233;32;20121;-68
2021/09/06 02:11:18;;;;;;;26.37;14.32;;;;;;;26.12;43.73;101347.91;4425316;32;20021;-68
2021/09/06 02:13:44;;;;;;;28.80;13.90;;;;;;;26.11;44.10;101344.22;4428742;32;20021;-68
2021/09/06 02:16:10;;;;;;;24.05;13.65;;;;;;;26.12;44.17;101348.69;4419196;32;21439;-68
2021/09/06 02:18:36;;;;;;;28.55;14.75;;;;;;;26.05;44.31;101354.25;4426643;32;20186;-68
2021/09/06 02:21:01;;;;;;;23.02;14.77;;;;;;;26.20;44.02;101349.69;4427048;32;20060;-68
2021/09/06 02:23:27;;;;;;;29.30;14.32;;;;;;;26.25;43.85;101340.22;4429545;32;20084;-68
2021/09/06 02:25:53;;;;;;;25.85;15.05;;;;;;;26.22;44.15;101349.16;4430982;32;20153;-68
2021/09/06 02:28:19;;;;;;;29.73;15.88;;;;;;;26.11;45.00;101352.13;4425645;32;20077;-68
2021/09/06 02:30:44;;;;;;;26.42;15.13;;;;;;;26.05;45.40;101343.47;4425495;32;20080;-68
2021/09/06 02:33:10;;;;;;;31.27;15.38;;;;;;;26.07;45.29;101346.63;4425580;32;20140;-68
2021/09/06 02:35:36;;;;;;;32.42;16.70;;;;;;;26.19;44.81;101342.34;4425070;32;20080;-68
2021/09/06 02:38:02;;;;;;;33.25;15.95;;;;;;;26.11;45.04;101335.56;4426492;32;20091;-68
2021/09/06 02:40:27;;;;;;;29.40;15.63;;;;;;;26.13;45.01;101332.94;4426376;32;20073;-68
2021/09/06 02:42:53;;;;;;;31.92;16.35;;;;;;;25.95;45.05;101330.66;4426123;32;20347;-68
2021/09/06 02:45:19;;;;;;;29.20;15.98;;;;;;;26.14;44.86;101339.50;4429458;32;20037;-68
2021/09/06 02:47:46;;;;;;;27.10;15.52;;;;;;;26.13;44.93;101343.69;4420708;32;20078;-68
2021/09/06 02:50:12;;;;;;;32.63;15.70;;;;;;;26.30;44.62;101338.63;4427190;32;20181;-68
2021/09/06 02:52:38;;;;;;;27.48;15.30;;;;;;;26.23;44.67;101339.97;4427519;32;20494;-68
2021/09/06 02:55:04;;;;;;;27.85;14.98;;;;;;;26.25;44.86;101351.78;4427740;32;20061;-68
2021/09/06 02:57:30;;;;;;;25.60;15.05;;;;;;;26.36;44.92;101345.16;4425253;32;20073;-68
2021/09/06 02:59:56;;;;;;;26.70;16.23;;;;;;;26.21;45.02;101338.94;4427442;32;20056;-68
2021/09/06 03:02:21;;;;;;;28.58;15.40;;;;;;;26.15;45.14;101333.22;4424605;32;20199;-67
2021/09/06 03:04:47;;;;;;;29.45;16.40;;;;;;;26.10;45.60;101333.22;4426303;32;20041;-68
2021/09/06 03:07:13;;;;;;;32.28;16.75;;;;;;;26.08;45.88;101333.00;4426479;32;20082;-68
2021/09/06 03:09:38;;;;;;;27.62;16.25;;;;;;;25.93;46.51;101329.63;4425928;32;20052;-68
2021/09/06 03:12:04;;;;;;;32.00;17.35;;;;;;;25.93;46.29;101329.63;4426609;32;20104;-68
2021/09/06 03:14:30;;;;;;;28.92;17.25;;;;;;;25.71;46.84;101313.19;4426294;32;20089;-68
2021/09/06 03:16:56;;;;;;;30.23;17.25;;;;;;;25.79;46.54;101319.97;4423455;32;20022;-68
2021/09/06 03:19:21;;;;;;;28.65;16.62;;;;;;;25.74;46.34;101331.53;4424424;32;20037;-68
2021/09/06 03:21:47;;;;;;;29.00;17.30;;;;;;;25.75;47.38;101328.13;4425880;32;20160;-68
2021/09/06 03:24:13;;;;;;;34.72;16.73;;;;;;;25.68;46.93;101330.78;4425432;32;20083;-68
2021/09/06 03:26:39;;;;;;;28.05;16.25;;;;;;;25.79;46.87;101328.63;4425540;32;20486;-68
2021/09/06 03:29:04;;;;;;;29.67;16.77;;;;;;;25.68;46.93;101328.66;4424314;32;20081;-68
2021/09/06 03:31:32;;;;;;;32.15;17.08;;;;;;;25.65;47.45;101323.97;4423161;32;20080;-68
2021/09/06 03:33:58;;;;;;;27.27;15.68;;;;;;;25.67;47.67;101332.88;4427381;32;20486;-68
2021/09/06 03:36:24;;;;;;;32.60;16.42;;;;;;;25.84;47.41;101324.16;4425239;32;20474;-67
2021/09/06 03:38:51;;;;;;;28.80;16.73;;;;;;;25.82;47.09;101324.69;4428531;32;20103;-67
2021/09/06 03:41:18;;;;;;;31.83;16.65;;;;;;;25.96;47.20;101312.03;4425910;32;20084;-67
2021/09/06 03:43:44;;;;;;;34.10;17.52;;;;;;;26.05;46.96;101316.75;4425188;32;20401;-67
2021/09/06 03:46:10;;;;;;;29.02;16.98;;;;;;;25.99;46.97;101313.09;4428194;32;20196;-67
2021/09/06 03:48:36;;;;;;;36.72;16.25;;;;;;;26.03;46.98;101325.13;4423788;32;20083;-67
2021/09/06 03:51:02;;;;;;;36.58;17.58;;;;;;;26.01;46.70;101322.03;4421375;32;20077;-67
2021/09/06 03:53:27;;;;;;;32.75;16.27;;;;;;;26.00;46.68;101317.53;4422300;32;20064;-67
2021/09/06 03:55:53;;;;;;;30.15;16.30;;;;;;;26.02;46.76;101317.81;4425680;32;20110;-67
2021/09/06 03:58:19;;;;;;;28.62;16.27;;;;;;;25.94;46.75;101326.19;4426198;32;20426;-67
2021/09/06 04:00:44;;;;;;;29.85;15.25;;;;;;;25.83;46.99;101323.34;4424506;32;20128;-67
2021/09/06 04:03:10;;;;;;;31.25;15.80;;;;;;;25.86;46.68;101328.06;4424413;32;20089;-67
2021/09/06 04:05:36;;;;;;;36.90;18.00;;;;;;;26.01;46.67;101316.25;4426313;32;20041;-67
2021/09/06 04:08:03;;;;;;;24.55;16.50;;;;;;;26.05;46.67;101311.75;4425882;32;20101;-67
2021/09/06 04:10:29;;;;;;;32.03;17.42;;;;;;;26.05;46.84;101317.50;4422757;32;20119;-67
2021/09/06 04:12:54;;;;;;;34.90;17.10;;;;;;;26.10;46.89;101316.69;4423694;32;20850;-67
2021/09/06 04:15:20;;;;;;;29.10;16.15;;;;;;;26.14;46.85;101311.44;4426318;32;20156;-67
2021/09/06 04:17:46;;;;;;;27.02;15.80;;;;;;;26.27;46.18;101308.75;4425655;32;20371;-67
2021/09/06 04:20:12;;;;;;;29.05;17.05;;;;;;;26.23;46.17;101313.22;4426406;32;20094;-67
2021/09/06 04:22:39;;;;;;;27.52;16.62;;;;;;;26.14;46.47;101299.13;4423509;32;20038;-67
2021/09/06 04:25:07;;;;;;;28.62;16.33;;;;;;;26.16;46.49;101300.16;4427569;32;20418;-67
2021/09/06 04:27:33;;;;;;;31.95;16.40;;;;;;;26.30;46.32;101295.34;4422382;32;20100;-67
2021/09/06 04:29:59;;;;;;;34.03;17.60;;;;;;;26.25;46.66;101296.94;4423827;32;20052;-67
2021/09/06 04:32:25;;;;;;;28.70;17.30;;;;;;;26.29;46.43;101305.31;4423812;32;20090;-67
2021/09/06 04:34:50;;;;;;;32.35;16.27;;;;;;;26.23;46.46;101304.56;4423559;32;20136;-67
2021/09/06 04:37:16;;;;;;;28.10;16.80;;;;;;;26.23;46.73;101293.78;4425348;32;20098;-67
2021/09/06 04:39:41;;;;;;;30.27;16.75;;;;;;;26.29;46.44;101299.56;4422924;32;20088;-67
2021/09/06 04:42:07;;;;;;;30.90;17.55;;;;;;;26.35;46.49;101303.19;4423652;32;20068;-67
2021/09/06 04:44:33;;;;;;;35.38;17.50;;;;;;;26.38;46.44;101307.87;4426373;32;20073;-67
2021/09/06 04:46:59;;;;;;;27.95;17.60;;;;;;;26.33;46.74;101311.59;4426238;32;20076;-67
2021/09/06 04:49:24;;;;;;;29.42;17.08;;;;;;;26.41;46.38;101312.56;4427496;32;20104;-67
2021/09/06 04:51:50;;;;;;;28.90;16.83;;;;;;;26.43;46.50;101312.81;4423428;32;20115;-67
2021/09/06 04:54:17;;;;;;;32.72;17.90;;;;;;;26.41;46.60;101316.25;4425038;32;20042;-67
2021/09/06 04:56:43;;;;;;;28.65;17.27;;;;;;;26.43;46.44;101318.59;4424164;32;20102;-67
2021/09/06 04:59:09;;;;;;;35.35;17.10;;;;;;;26.44;46.54;101317.25;4423657;32;20050;-67
2021/09/06 05:01:35;;;;;;;36.38;18.67;;;;;;;26.44;45.98;101320.16;4425320;32;20089;-67
2021/09/06 05:04:01;;;;;;;31.45;18.23;;;;;;;26.63;46.06;101318.22;4421823;32;20213;-67
2021/09/06 05:06:27;;;;;;;33.63;18.85;;;;;;;26.61;45.91;101321.63;4427331;32;20085;-67
2021/09/06 05:08:52;;;;;;;34.22;18.58;;;;;;;26.58;45.87;101322.69;4425579;32;20145;-67
2021/09/06 05:11:18;;;;;;;33.03;18.08;;;;;;;26.52;46.07;101321.16;4426214;32;20104;-67
2021/09/06 05:13:44;;;;;;;31.08;18.58;;;;;;;26.47;46.31;101317.00;4422781;32;20062;-67
2021/09/06 05:16:10;;;;;;;37.70;19.45;;;;;;;26.51;46.22;101323.25;4423956;32;20201;-67
2021/09/06 05:18:36;;;;;;;32.17;18.58;;;;;;;26.55;46.12;101320.09;4426238;32;20747;-67
2021/09/06 05:21:02;;;;;;;29.85;17.65;;;;;;;26.50;46.52;101320.91;4426150;32;20754;-67
2021/09/06 05:23:28;;;;;;;32.55;18.30;;;;;;;26.56;46.20;101331.09;4422131;32;20141;-67
2021/09/06 05:25:54;;;;;;;36.28;18.87;;;;;;;26.57;46.25;101326.13;4423683;32;20066;-67
2021/09/06 05:28:20;;;;;;;31.25;17.87;;;;;;;26.58;46.19;101327.66;4426376;32;20044;-67
2021/09/06 05:30:45;;;;;;;33.55;18.00;;;;;;;26.55;46.53;101340.28;4426096;32;20111;-67
2021/09/06 05:33:11;;;;;;;32.10;18.02;;;;;;;26.58;46.36;101339.22;4424805;32;20125;-67
2021/09/06 05:35:37;;;;;;;36.53;20.37;;;;;;;26.63;46.32;101335.56;4423744;32;20111;-67
2021/09/06 05:38:02;;;;;;;35.95;21.02;;;;;;;26.53;46.62;101334.25;4422572;32;20086;-67
2021/09/06 05:40:28;;;;;;;34.58;19.42;;;;;;;26.44;46.85;101338.25;4424718;32;20452;-67
2021/09/06 05:42:54;;;;;;;36.92;19.65;;;;;;;26.51;46.66;101331.16;4423387;32;20133;-67
2021/09/06 05:45:19;;;;;;;36.13;20.60;;;;;;;26.44;46.99;101340.34;4428939;32;20030;-67
2021/09/06 05:47:45;;;;;;;32.90;19.98;;;;;;;26.39;47.04;101339.09;4426930;32;20434;-67
2021/09/06 05:50:17;;;;;;;39.83;20.23;;;;;;;26.39;46.91;101327.56;4429027;32;20034;-67
2021/09/06 05:52:43;;;;;;;34.72;19.95;;;;;;;26.38;46.87;101330.97;4427278;32;20037;-67
2021/09/06 05:55:10;;;;;;;38.97;19.62;;;;;;;26.35;47.01;101337.81;4426213;32;20093;-67
2021/09/06 05:57:36;;;;;;;35.78;19.77;;;;;;;26.39;46.87;101341.19;4425007;32;20041;-67
2021/09/06 06:00:02;;;;;;;40.55;20.37;;;;;;;26.37;46.88;101340.94;4426537;32;20528;-67
2021/09/06 06:02:28;;;;;;;36.72;20.30;;;;;;;26.43;46.69;101338.78;4421081;32;20466;-67
2021/09/06 06:04:54;;;;;;;40.35;20.83;;;;;;;26.49;46.74;101345.31;4428162;32;20068;-67
2021/09/06 06:07:19;;;;;;;36.10;19.73;;;;;;;26.53;46.66;101348.69;4424964;32;21559;-67
2021/09/06 06:09:46;;;;;;;39.40;21.55;;;;;;;26.60;46.42;101351.03;4427361;32;20085;-67
2021/09/06 06:12:12;;;;;;;36.65;20.67;;;;;;;26.56;46.33;101347.62;4424063;32;20473;-67
2021/09/06 06:14:37;;;;;;;43.75;22.25;;;;;;;26.66;45.83;101352.56;4426947;32;20046;-67
2021/09/06 06:17:03;;;;;;;52.55;23.52;;;;;;;26.54;46.37;101350.28;4421543;32;20429;-67
2021/09/06 06:19:29;;;;;;;42.50;23.75;;;;;;;26.65;46.14;101358.87;4426501;32;20096;-67
2021/09/06 06:21:55;;;;;;;39.63;21.35;;;;;;;26.74;46.25;101356.47;4424651;32;20045;-67
2021/09/06 06:24:21;;;;;;;39.58;20.75;;;;;;;26.77;46.04;101361.16;4425796;32;20142;-68
2021/09/06 06:26:47;;;;;;;43.08;20.88;;;;;;;26.82;45.88;101351.66;4427313;32;20062;-69
2021/09/06 06:29:12;;;;;;;48.30;21.17;;;;;;;26.92;45.66;101363.66;4425877;32;20062;-68
2021/09/06 06:31:38;;;;;;;41.35;21.35;;;;;;;26.95;45.26;101357.59;4428073;32;20683;-68
2021/09/06 06:34:03;;;;;;;38.30;21.15;;;;;;;27.02;44.95;101362.00;4422741;32;20447;-67
2021/09/06 06:36:29;;;;;;;43.05;21.83;;;;;;;26.92;45.24;101367.34;4417453;32;20045;-67
2021/09/06 06:38:55;;;;;;;39.17;21.10;;;;;;;27.00;44.87;101365.41;4419756;32;20475;-68
2021/09/06 06:41:21;;;;;;;45.65;21.77;;;;;;;27.04;44.88;101370.91;4422552;32;20108;-68
2021/09/06 06:43:46;;;;;;;47.58;22.87;;;;;;;27.14;44.44;101377.91;4418409;32;20081;-68
2021/09/06 06:46:12;;;;;;;42.67;22.58;;;;;;;27.22;44.44;101371.00;4416817;32;20072;-68
2021/09/06 06:48:39;;;;;;;46.10;21.70;;;;;;;27.29;43.88;101366.78;4419258;32;20042;-68
2021/09/06 06:51:06;;;;;;;44.97;22.52;;;;;;;27.20;44.21;101365.00;4418348;32;20077;-68
2021/09/06 06:53:31;;;;;;;41.95;21.52;;;;;;;27.26;43.91;101375.72;4419454;32;20109;-68
2021/09/06 06:55:57;;;;;;;41.53;20.65;;;;;;;27.17;43.82;101368.97;4415221;32;20434;-68
2021/09/06 06:58:24;;;;;;;39.28;22.13;;;;;;;27.27;43.81;101372.28;4421324;32;20087;-67
2021/09/06 07:00:50;;;;;;;43.08;22.62;;;;;;;27.36;43.44;101374.84;4417191;32;20085;-68
2021/09/06 07:03:16;;;;;;;42.67;21.67;;;;;;;27.46;43.19;101373.19;4412196;32;20141;-68
2021/09/06 07:05:42;;;;;;;36.30;21.70;;;;;;;27.48;43.32;101372.63;4420870;32;20037;-68
2021/09/06 07:08:07;;;;;;;42.03;20.95;;;;;;;27.63;43.06;101379.53;4419945;32;20089;-68
2021/09/06 07:10:33;;;;;;;48.10;22.87;;;;;;;27.58;43.31;101380.38;4413308;32;20122;-68
2021/09/06 07:12:59;;;;;;;43.17;22.17;;;;;;;27.63;43.01;101378.75;4415168;32;20103;-68
2021/09/06 07:15:31;;;;;;;48.22;22.98;;;;;;;27.81;42.92;101381.72;4415192;32;20468;-68
2021/09/06 07:17:57;;;;;;;45.08;22.27;;;;;;;27.89;42.93;101379.03;4415514;32;20085;-69
2021/09/06 07:20:23;;;;;;;41.70;22.37;;;;;;;28.14;41.88;101389.22;4416939;32;20145;-68
2021/09/06 07:22:49;;;;;;;40.17;20.92;;;;;;;28.40;41.05;101393.06;4415927;32;20513;-68
2021/09/06 07:25:14;;;;;;;43.17;22.30;;;;;;;28.34;41.44;101397.38;4414221;32;20110;-67
2021/09/06 07:27:40;;;;;;;43.08;22.00;;;;;;;28.46;41.15;101388.00;4417342;32;20540;-68
2021/09/06 07:30:07;;;;;;;46.15;21.67;;;;;;;28.74;41.24;101396.28;4417879;32;20511;-67
2021/09/06 07:32:33;;;;;;;40.25;21.33;;;;;;;28.87;40.99;101405.81;4416831;32;20097;-68
2021/09/06 07:34:58;;;;;;;44.60;21.62;;;;;;;28.93;40.61;101400.72;4415173;32;20526;-68
2021/09/06 07:37:24;;;;;;;39.03;21.73;;;;;;;29.14;40.32;101403.81;4417262;32;20077;-68
2021/09/06 07:39:50;;;;;;;53.28;22.73;;;;;;;29.25;40.00;101408.66;4414351;32;21231;-68
2021/09/06 07:42:16;;;;;;;44.67;22.35;;;;;;;29.38;39.79;101420.28;4416263;32;20088;-68
2021/09/06 07:44:42;;;;;;;41.60;21.77;;;;;;;29.47;39.37;101428.53;4415768;32;20177;-68
2021/09/06 07:47:09;;;;;;;43.38;21.35;;;;;;;29.18;40.13;101421.69;4414404;32;20083;-68
2021/09/06 07:49:35;;;;;;;42.30;22.85;;;;;;;29.50;39.83;101431.13;4415982;32;20081;-69
2021/09/06 07:52:01;;;;;;;41.10;22.58;;;;;;;29.55;39.45;101430.25;4415016;32;21092;-69
2021/09/06 07:54:26;;;;;;;44.45;23.25;;;;;;;29.75;39.26;101441.25;4414354;32;21781;-69
2021/09/06 07:56:54;;;;;;;41.20;22.77;;;;;;;29.91;38.87;101430.66;4417718;32;20112;-70
2021/09/06 07:59:21;;;;;;;54.08;24.45;;;;;;;30.17;38.59;101430.63;4415934;32;20488;-69
2021/09/06 08:01:47;;;;;;;46.22;23.95;;;;;;;30.30;38.05;101427.75;4416966;32;20540;-69
2021/09/06 08:04:14;;;;;;;41.92;21.83;;;;;;;30.33;37.88;101432.44;4416403;32;20085;-70
2021/09/06 08:06:40;;;;;;;44.65;22.17;;;;;;;30.68;37.42;101437.75;4416791;32;20411;-68
2021/09/06 08:09:06;;;;;;;39.55;23.12;;;;;;;30.92;36.97;101433.78;4418029;32;20068;-69
2021/09/06 08:11:32;;;;;;;41.58;22.05;;;;;;;30.91;36.89;101438.00;4416108;32;20097;-68
2021/09/06 08:14:00;;;;;;;44.95;22.90;;;;;;;30.76;36.61;101441.53;4418193;32;20511;-68
2021/09/06 08:16:26;;;;;;;46.92;22.95;;;;;;;30.53;37.40;101435.41;4415797;32;20120;-68
2021/09/06 08:18:52;;;;;;;46.10;22.23;;;;;;;30.85;36.96;101438.16;4416210;32;20093;-67
2021/09/06 08:21:18;;;;;;;40.75;23.40;;;;;;;30.98;36.89;101432.28;4416652;32;20122;-68
2021/09/06 08:23:43;;;;;;;46.22;23.10;;;;;;;30.80;37.09;101433.25;4415896;32;20026;-67
2021/09/06 08:26:09;;;;;;;41.50;23.25;;;;;;;30.29;38.04;101429.87;4414236;32;20049;-67
2021/09/06 08:28:36;;;;;;;46.22;22.95;;;;;;;30.20;38.31;101435.34;4414502;32;20135;-67
2021/09/06 08:31:03;;;;;;;48.42;23.90;;;;;;;30.41;37.89;101434.13;4416544;32;20585;-67
2021/09/06 08:33:29;;;;;;;48.67;23.58;;;;;;;30.78;37.39;101433.81;4417739;32;20107;-68
2021/09/06 08:35:55;;;;;;;42.65;23.17;;;;;;;31.08;36.96;101433.37;4414589;32;20088;-68
2021/09/06 08:38:21;;;;;;;43.58;22.80;;;;;;;31.36;36.49;101439.28;4419673;32;20132;-68
2021/09/06 08:40:46;;;;;;;44.60;24.27;;;;;;;31.78;35.91;101437.88;4415033;32;20038;-68
2021/09/06 08:43:12;;;;;;;45.38;23.75;;;;;;;32.03;34.98;101436.13;4414848;32;20124;-68
2021/09/06 08:45:39;;;;;;;44.08;23.62;;;;;;;31.94;35.30;101436.66;4412347;32;20121;-68
2021/09/06 08:48:05;;;;;;;36.58;23.25;;;;;;;32.04;35.08;101440.63;4418642;32;20101;-68
2021/09/06 08:50:32;;;;;;;39.05;22.40;;;;;;;32.48;34.21;101439.31;4417940;32;20118;-68
2021/09/06 08:53:00;;;;;;;38.65;22.70;;;;;;;33.11;33.70;101445.56;4416702;32;20037;-68
2021/09/06 08:55:25;;;;;;;39.38;23.58;;;;;;;33.40;32.93;101432.38;4413710;32;20089;-68
2021/09/06 08:57:51;;;;;;;40.72;22.65;;;;;;;33.83;32.67;101440.94;4416068;32;20131;-68
2021/09/06 09:00:26;;;;;;;39.65;23.00;;;;;;;34.20;32.05;101446.75;4416296;32;20085;-67
2021/09/06 09:02:52;;;;;;;36.85;21.65;;;;;;;34.78;31.12;101451.41;4416244;32;20152;-67
2021/09/06 09:05:18;;;;;;;41.17;22.65;;;;;;;34.68;31.52;101446.78;4415805;32;20077;-67
2021/09/06 09:07:44;;;;;;;34.92;21.73;;;;;;;34.93;30.97;101453.50;4413096;32;20092;-67
2021/09/06 09:10:12;;;;;;;43.33;22.73;;;;;;;35.14;30.73;101448.91;4419873;32;20081;-67
2021/09/06 09:12:39;;;;;;;46.03;21.90;;;;;;;35.41;30.40;101452.84;4414475;32;20491;-67
2021/09/06 09:15:07;;;;;;;40.00;21.65;;;;;;;35.58;30.40;101452.09;4417659;32;20074;-68
2021/09/06 09:17:34;;;;;;;29.10;19.75;;;;;;;36.03;29.85;101455.41;4418758;32;20050;-67
2021/09/06 09:20:04;;;;;;;35.58;21.67;;;;;;;36.31;29.49;101453.38;4419626;32;20133;-67
2021/09/06 09:22:34;;;;;;;36.03;21.80;;;;;;;36.83;29.08;101457.81;4415921;32;20231;-69
2021/09/06 09:25:04;;;;;;;40.20;22.42;;;;;;;37.11;28.48;101460.94;4417214;32;20787;-67
2021/09/06 09:27:36;;;;;;;40.95;21.33;;;;;;;37.13;28.27;101460.31;4417331;32;20061;-67
2021/09/06 09:30:05;;;;;;;32.22;21.98;;;;;;;37.33;28.39;101459.84;4418885;32;20084;-67
2021/09/06 09:32:33;;;;;;;37.88;21.87;;;;;;;37.49;28.24;101451.56;4420823;32;20076;-68
2021/09/06 09:35:03;;;;;;;34.22;20.83;;;;;;;37.66;28.07;101461.09;4420429;32;20104;-68
2021/09/06 09:37:29;;;;;;;36.25;21.05;;;;;;;38.61;27.04;101456.75;4416223;32;20144;-68
2021/09/06 09:39:57;;;;;;;33.28;20.67;;;;;;;38.72;26.85;101456.91;4417257;32;20085;-68
2021/09/06 09:42:24;;;;;;;33.53;21.12;;;;;;;39.05;26.39;101469.72;4416498;32;20442;-68
2021/09/06 09:44:55;;;;;;;33.50;20.80;;;;;;;39.03;26.43;101463.69;4417734;32;20073;-67
2021/09/06 09:47:23;;;;;;;32.90;20.62;;;;;;;39.15;26.36;101463.81;4417532;32;20104;-68
2021/09/06 09:49:52;;;;;;;28.30;19.05;;;;;;;39.55;25.82;101461.69;4417591;32;20045;-68
2021/09/06 09:52:19;;;;;;;32.90;19.37;;;;;;;39.56;25.65;101469.09;4416067;32;20053;-68
2021/09/06 09:54:47;;;;;;;31.25;19.30;;;;;;;39.93;25.33;101469.53;4417019;32;20423;-68
2021/09/06 09:57:15;;;;;;;30.73;17.37;;;;;;;39.99;25.55;101461.13;4417894;32;20077;-69
2021/09/06 09:59:42;;;;;;;27.33;16.95;;;;;;;40.31;25.09;101459.69;4418810;32;20132;-69
2021/09/06 10:02:14;;;;;;;29.63;17.12;;;;;;;40.58;24.73;101463.03;4415454;32;20550;-68
2021/09/06 10:04:47;;;;;;;25.83;16.75;;;;;;;41.34;23.53;101453.38;4420224;32;20136;-69
2021/09/06 10:07:14;;;;;;;25.58;16.85;;;;;;;41.14;23.84;101449.12;4419823;32;20075;-68
2021/09/06 10:09:43;;;;;;;19.65;13.27;;;;;;;40.99;24.16;101459.22;4419824;32;20103;-68
2021/09/06 10:12:10;;;;;;;21.80;15.00;;;;;;;41.02;24.04;101460.13;4420395;32;20117;-68
2021/09/06 10:14:35;;;;;;;23.95;13.27;;;;;;;40.14;24.98;101459.94;4416875;32;20117;-68
2021/09/06 10:17:06;;;;;;;20.75;14.27;;;;;;;40.64;24.49;101463.44;4420149;32;20131;-68
2021/09/06 10:19:49;;;;;;;24.65;14.45;;;;;;;40.21;25.01;101453.81;4414833;32;20210;-68
2021/09/06 10:22:30;;;;;;;20.60;14.30;;;;;;;39.93;25.38;101454.78;4419305;32;20097;-68
2021/09/06 10:24:59;;;;;;;25.48;15.20;;;;;;;39.81;25.60;101456.84;4418256;32;20070;-68
2021/09/06 10:27:26;;;;;;;25.90;15.20;;;;;;;39.13;26.64;101443.03;4418432;32;20081;-68
2021/09/06 10:30:01;;;;;;;28.95;15.13;;;;;;;38.71;27.21;101449.47;4419223;32;20081;-68
2021/09/06 10:32:45;;;;;;;25.55;15.25;;;;;;;38.59;27.46;101444.84;4411353;32;20045;-68
2021/09/06 10:35:21;;;;;;;23.47;15.63;;;;;;;38.13;28.05;101456.75;4416425;32;20142;-67
2021/09/06 10:38:00;;;;;;;28.45;16.42;;;;;;;37.49;28.99;101442.75;4412806;32;20125;-68
2021/09/06 10:40:30;;;;;;;26.58;15.10;;;;;;;37.36;29.25;101440.25;4418588;32;20477;-68
2021/09/06 10:42:56;;;;;;;28.02;15.63;;;;;;;36.70;30.22;101449.38;4419195;32;20105;-68
2021/09/06 10:45:24;;;;;;;27.08;16.05;;;;;;;35.87;31.41;101435.66;4418585;32;20532;-68
2021/09/06 10:48:05;;;;;;;31.20;15.57;;;;;;;36.13;31.28;101444.56;4419345;32;20717;-68
2021/09/06 10:50:37;;;;;;;27.48;16.05;;;;;;;36.75;30.30;101448.34;4420487;32;20116;-68
2021/09/06 10:53:03;;;;;;;30.98;16.50;;;;;;;36.77;30.39;101445.56;4417143;32;20394;-68
2021/09/06 10:55:29;;;;;;;25.73;16.17;;;;;;;36.49;30.72;101440.25;4418039;32;20559;-68
2021/09/06 10:57:55;;;;;;;28.10;16.70;;;;;;;36.28;31.08;101442.88;4415311;32;21327;-68
2021/09/06 11:00:23;;;;;;;26.37;15.65;;;;;;;36.29;31.09;101445.19;4419151;32;20152;-68
2021/09/06 11:02:52;;;;;;;24.60;15.18;;;;;;;36.15;31.35;101441.81;4419076;32;20984;-68
2021/09/06 11:05:23;;;;;;;30.52;16.33;;;;;;;36.30;31.16;101446.75;4415933;32;20141;-68
2021/09/06 11:08:03;;;;;;;29.17;16.42;;;;;;;36.58;30.85;101439.53;4415051;32;20062;-68